createdAt,value
2018-06-29T00:00:43.745Z,5.70
2018-06-29T00:03:12.207Z,5.67
2018-06-29T00:05:40.866Z,6.10
2018-06-29T00:08:09.359Z,6.27
2018-06-29T00:10:38.407Z,5.70
2018-06-29T00:13:07.491Z,5.47
2018-06-29T00:15:35.728Z,6.60
2018-06-29T00:18:04.407Z,5.57
2018-06-29T00:20:33.260Z,6.07
2018-06-29T00:23:01.439Z,6.00
2018-06-29T00:25:29.892Z,5.80
2018-06-29T00:27:58.375Z,6.30
2018-06-29T00:30:26.934Z,5.77
2018-06-29T00:32:55.635Z,5.97
2018-06-29T00:35:24.266Z,6.17
2018-06-29T00:37:53.619Z,5.53
2018-06-29T00:40:22.124Z,5.60
2018-06-29T00:42:51.407Z,5.70
2018-06-29T00:45:19.975Z,5.93
2018-06-29T00:47:48.504Z,5.40
2018-06-29T00:50:17.151Z,6.10
2018-06-29T00:52:45.346Z,6.27
2018-06-29T00:55:14.194Z,6.20
2018-06-29T00:57:43.897Z,5.60
2018-06-29T01:00:12.783Z,6.00
2018-06-29T01:02:41.280Z,5.97
2018-06-29T01:05:10.695Z,5.53
2018-06-29T01:07:39.255Z,6.30
2018-06-29T01:10:07.934Z,6.13
2018-06-29T01:12:37.128Z,6.13
2018-06-29T01:15:06.057Z,5.83
2018-06-29T01:17:34.585Z,6.30
2018-06-29T01:20:03.484Z,6.00
2018-06-29T01:22:32.052Z,6.17
2018-06-29T01:25:00.558Z,6.20
2018-06-29T01:27:29.728Z,6.47
2018-06-29T01:29:58.947Z,6.47
2018-06-29T01:32:27.980Z,7.17
2018-06-29T01:34:56.508Z,6.50
2018-06-29T01:37:25.219Z,6.83
2018-06-29T01:39:53.774Z,6.60
2018-06-29T01:42:22.335Z,6.83
2018-06-29T01:44:51.071Z,7.00
2018-06-29T01:47:19.980Z,7.13
2018-06-29T01:49:48.718Z,6.60
2018-06-29T01:52:18.118Z,7.00
2018-06-29T01:54:46.557Z,6.90
2018-06-29T01:57:15.077Z,7.93
2018-06-29T01:59:43.606Z,6.50
2018-06-29T02:02:12.112Z,6.90
2018-06-29T02:04:40.844Z,6.70
2018-06-29T02:07:09.613Z,6.63
2018-06-29T02:09:38.126Z,6.60
2018-06-29T02:12:06.808Z,6.17
2018-06-29T02:14:35.648Z,7.10
2018-06-29T02:17:04.350Z,6.60
2018-06-29T02:19:32.791Z,6.77
2018-06-29T02:22:01.371Z,6.90
2018-06-29T02:24:29.912Z,6.97
2018-06-29T02:26:59.287Z,6.83
2018-06-29T02:29:27.875Z,6.87
2018-06-29T02:31:56.346Z,7.10
2018-06-29T02:34:25.012Z,7.13
2018-06-29T02:36:54.374Z,7.10
2018-06-29T02:39:23.258Z,7.27
2018-06-29T02:41:51.811Z,7.10
2018-06-29T02:44:20.839Z,7.60
2018-06-29T02:46:50.049Z,7.13
2018-06-29T02:49:18.686Z,7.23
2018-06-29T02:51:47.268Z,6.97
2018-06-29T02:54:15.828Z,7.60
2018-06-29T02:56:44.642Z,7.93
2018-06-29T02:59:13.249Z,7.23
2018-06-29T03:01:41.784Z,7.20
2018-06-29T03:04:10.388Z,7.97
2018-06-29T03:06:38.972Z,7.30
2018-06-29T03:09:08.760Z,6.93
2018-06-29T03:11:37.734Z,7.13
2018-06-29T03:14:06.204Z,7.40
2018-06-29T03:16:34.980Z,6.90
2018-06-29T03:19:03.464Z,7.33
2018-06-29T03:21:31.978Z,7.27
2018-06-29T03:24:00.537Z,7.60
2018-06-29T03:26:29.305Z,7.80
2018-06-29T03:28:58.064Z,7.33
2018-06-29T03:31:26.626Z,7.57
2018-06-29T03:33:55.235Z,7.97
2018-06-29T03:36:23.792Z,7.03
2018-06-29T03:38:52.274Z,7.77
2018-06-29T03:41:21.226Z,7.13
2018-06-29T03:43:50.465Z,7.27
2018-06-29T03:46:19.035Z,7.23
2018-06-29T03:48:48.038Z,7.30
2018-06-29T03:51:16.699Z,7.30
2018-06-29T03:53:45.982Z,6.97
2018-06-29T03:56:14.489Z,6.87
2018-06-29T03:58:43.154Z,6.80
2018-06-29T04:01:12.042Z,7.20
2018-06-29T04:03:48.375Z,7.20
2018-06-29T04:06:17.297Z,6.83
2018-06-29T04:08:46.555Z,7.00
2018-06-29T04:11:15.251Z,6.70
2018-06-29T04:13:43.701Z,7.47
2018-06-29T04:16:12.267Z,7.60
2018-06-29T04:18:40.843Z,7.37
2018-06-29T04:21:09.308Z,6.30
2018-06-29T04:23:38.056Z,6.10
2018-06-29T04:26:06.872Z,6.57
2018-06-29T04:28:35.535Z,7.00
2018-06-29T04:31:04.016Z,6.30
2018-06-29T04:33:32.592Z,6.80
2018-06-29T04:36:01.905Z,6.40
2018-06-29T04:38:31.371Z,6.80
2018-06-29T04:40:59.930Z,6.00
2018-06-29T04:43:28.607Z,6.40
2018-06-29T04:45:57.108Z,6.47
2018-06-29T04:48:25.323Z,6.70
2018-06-29T04:50:53.824Z,5.93
2018-06-29T04:53:22.520Z,7.00
2018-06-29T04:55:51.100Z,7.30
2018-06-29T04:58:20.246Z,6.73
2018-06-29T05:00:49.161Z,7.23
2018-06-29T05:03:17.892Z,7.47
2018-06-29T05:05:46.432Z,7.03
2018-06-29T05:08:15.048Z,6.70
2018-06-29T05:10:43.624Z,7.10
2018-06-29T05:13:12.252Z,6.93
2018-06-29T05:15:41.102Z,7.60
2018-06-29T05:18:09.756Z,7.03
2018-06-29T05:20:38.343Z,6.80
2018-06-29T05:23:07.752Z,7.00
2018-06-29T05:25:36.247Z,7.47
2018-06-29T05:28:05.196Z,7.20
2018-06-29T05:30:33.769Z,6.97
2018-06-29T05:33:02.415Z,7.37
2018-06-29T05:35:30.927Z,7.30
2018-06-29T05:37:59.526Z,7.00
2018-06-29T05:40:28.254Z,6.73
2018-06-29T05:42:56.811Z,7.00
2018-06-29T05:45:25.363Z,7.53
2018-06-29T05:47:53.999Z,6.67
2018-06-29T05:50:22.571Z,7.43
2018-06-29T05:52:51.160Z,6.70
2018-06-29T05:55:19.755Z,6.83
2018-06-29T05:57:48.295Z,7.53
2018-06-29T06:00:16.898Z,7.10
2018-06-29T06:02:45.489Z,7.37
2018-06-29T06:05:14.315Z,7.03
2018-06-29T06:07:43.043Z,6.70
2018-06-29T06:10:11.552Z,7.00
2018-06-29T06:12:40.271Z,6.47
2018-06-29T06:15:08.847Z,7.23
2018-06-29T06:17:37.451Z,6.20
2018-06-29T06:20:11.563Z,6.40
2018-06-29T06:22:40.166Z,5.77
2018-06-29T06:25:08.643Z,5.60
2018-06-29T06:27:37.615Z,6.07
2018-06-29T06:30:06.519Z,5.70
2018-06-29T06:32:35.196Z,5.33
2018-06-29T06:35:03.838Z,5.70
2018-06-29T06:37:32.235Z,5.43
2018-06-29T06:40:01.420Z,5.43
2018-06-29T06:42:30.013Z,6.10
2018-06-29T06:44:59.620Z,5.50
2018-06-29T06:47:28.148Z,5.50
2018-06-29T06:49:56.651Z,5.07
2018-06-29T06:52:25.460Z,5.30
2018-06-29T06:54:54.295Z,4.90
2018-06-29T06:57:22.867Z,5.10
2018-06-29T06:59:51.480Z,5.60
2018-06-29T07:02:20.020Z,5.13
2018-06-29T07:04:49.389Z,5.20
2018-06-29T07:07:18.481Z,5.60
2018-06-29T07:09:46.665Z,5.33
2018-06-29T07:12:15.277Z,5.47
2018-06-29T07:14:43.750Z,5.17
2018-06-29T07:17:12.290Z,5.17
2018-06-29T07:19:40.812Z,5.13
2018-06-29T07:22:09.541Z,5.10
2018-06-29T07:24:38.118Z,5.57
2018-06-29T07:27:07.013Z,5.20
2018-06-29T07:29:35.612Z,5.57
2018-06-29T07:32:04.069Z,5.10
2018-06-29T07:34:32.701Z,6.00
2018-06-29T07:37:01.260Z,4.97
2018-06-29T07:39:29.767Z,4.90
2018-06-29T07:41:58.291Z,5.07
2018-06-29T07:44:27.492Z,5.00
2018-06-29T07:46:56.094Z,4.70
2018-06-29T07:49:24.751Z,5.00
2018-06-29T07:51:53.308Z,5.23
2018-06-29T07:54:21.847Z,5.10
2018-06-29T07:56:50.424Z,5.23
2018-06-29T07:59:19.057Z,5.27
2018-06-29T08:01:48.179Z,4.80
2018-06-29T08:04:16.791Z,5.67
2018-06-29T08:06:46.349Z,5.00
2018-06-29T08:09:15.066Z,5.50
2018-06-29T08:11:43.539Z,5.50
2018-06-29T08:14:12.070Z,5.27
2018-06-29T08:16:41.219Z,5.07
2018-06-29T08:19:09.363Z,5.20
2018-06-29T08:21:38.048Z,4.80
2018-06-29T08:24:06.531Z,5.60
2018-06-29T08:26:35.045Z,5.47
2018-06-29T08:29:03.565Z,4.60
2018-06-29T08:31:32.134Z,5.37
2018-06-29T08:34:00.716Z,5.30
2018-06-29T08:36:29.284Z,5.20
2018-06-29T08:38:57.797Z,5.00
2018-06-29T08:41:26.358Z,5.03
2018-06-29T08:43:55.478Z,5.30
2018-06-29T08:46:23.995Z,5.03
2018-06-29T08:48:52.558Z,4.57
2018-06-29T08:51:21.419Z,4.93
2018-06-29T08:53:49.914Z,4.57
2018-06-29T08:56:18.524Z,5.00
2018-06-29T08:58:47.166Z,5.60
2018-06-29T09:01:16.383Z,5.57
2018-06-29T09:03:45.049Z,5.20
2018-06-29T09:06:13.848Z,4.77
2018-06-29T09:08:42.436Z,5.40
2018-06-29T09:11:10.974Z,4.70
2018-06-29T09:13:39.518Z,5.00
2018-06-29T09:16:08.079Z,4.80
2018-06-29T09:18:36.663Z,4.77
2018-06-29T09:21:06.087Z,5.27
2018-06-29T09:23:35.079Z,4.90
2018-06-29T09:26:03.815Z,4.17
2018-06-29T09:28:32.319Z,5.00
2018-06-29T09:31:01.136Z,5.07
2018-06-29T09:33:29.645Z,5.40
2018-06-29T09:35:58.112Z,5.00
2018-06-29T09:38:26.583Z,4.90
2018-06-29T09:40:55.368Z,5.87
2018-06-29T09:43:24.580Z,6.80
2018-06-29T09:45:53.795Z,4.47
2018-06-29T09:48:22.296Z,5.10
2018-06-29T09:50:51.490Z,6.50
2018-06-29T09:53:20.079Z,5.30
2018-06-29T09:55:48.864Z,5.57
2018-06-29T09:58:17.350Z,4.83
2018-06-29T10:00:46.439Z,4.97
2018-06-29T10:03:14.630Z,5.30
2018-06-29T10:05:43.378Z,5.40
2018-06-29T10:08:11.928Z,4.97
2018-06-29T10:10:40.480Z,5.40
2018-06-29T10:13:09.082Z,4.50
2018-06-29T10:15:37.683Z,5.07
2018-06-29T10:18:06.341Z,4.77
2018-06-29T10:20:34.845Z,5.20
2018-06-29T10:23:04.203Z,5.73
2018-06-29T10:25:33.611Z,5.50
2018-06-29T10:28:02.496Z,5.47
2018-06-29T10:30:30.995Z,5.63
2018-06-29T10:32:59.496Z,6.00
2018-06-29T10:35:28.172Z,5.00
2018-06-29T10:37:56.662Z,5.13
2018-06-29T10:40:25.350Z,5.20
2018-06-29T10:42:54.091Z,5.07
2018-06-29T10:45:23.275Z,5.20
2018-06-29T10:47:52.351Z,5.70
2018-06-29T10:50:20.898Z,5.20
2018-06-29T10:52:50.018Z,5.03
2018-06-29T10:55:19.019Z,4.50
2018-06-29T10:57:47.494Z,5.10
2018-06-29T11:00:16.183Z,4.97
2018-06-29T11:02:44.722Z,5.17
2018-06-29T11:05:13.418Z,4.43
2018-06-29T11:07:41.860Z,5.17
2018-06-29T11:10:10.384Z,5.13
2018-06-29T11:12:39.802Z,5.10
2018-06-29T11:15:08.834Z,5.07
2018-06-29T11:17:37.589Z,5.70
2018-06-29T11:20:06.065Z,5.50
2018-06-29T11:22:34.773Z,5.30
2018-06-29T11:25:03.965Z,5.90
2018-06-29T11:27:32.564Z,4.77
2018-06-29T11:30:01.044Z,4.80
2018-06-29T11:32:29.731Z,5.10
2018-06-29T11:34:58.879Z,5.80
2018-06-29T11:37:27.711Z,5.00
2018-06-29T11:39:56.394Z,6.33
2018-06-29T11:42:24.878Z,4.50
2018-06-29T11:44:53.544Z,5.17
2018-06-29T11:47:22.230Z,5.10
2018-06-29T11:49:50.905Z,4.70
2018-06-29T11:52:19.575Z,4.97
2018-06-29T11:54:48.257Z,4.80
2018-06-29T11:57:17.483Z,5.30
2018-06-29T11:59:46.118Z,5.00
2018-06-29T12:02:15.651Z,5.17
2018-06-29T12:04:44.244Z,4.93
2018-06-29T12:07:12.998Z,4.30
2018-06-29T12:09:42.385Z,4.37
2018-06-29T12:12:10.978Z,4.37
2018-06-29T12:14:39.612Z,4.67
2018-06-29T12:17:08.812Z,3.97
2018-06-29T12:19:37.292Z,4.53
2018-06-29T12:22:06.283Z,4.33
2018-06-29T12:24:35.084Z,3.83
2018-06-29T12:27:03.656Z,4.27
2018-06-29T12:29:32.392Z,4.20
2018-06-29T12:32:01.214Z,4.10
2018-06-29T12:34:29.795Z,4.07
2018-06-29T12:36:58.604Z,4.80
2018-06-29T12:39:27.276Z,4.40
2018-06-29T12:41:55.838Z,4.27
2018-06-29T12:44:24.632Z,3.90
2018-06-29T12:46:53.360Z,4.23
2018-06-29T12:49:22.245Z,3.90
2018-06-29T12:51:52.075Z,4.13
2018-06-29T12:54:20.597Z,4.30
2018-06-29T12:56:49.112Z,3.87
2018-06-29T12:59:18.627Z,3.77
2018-06-29T13:01:47.322Z,3.97
2018-06-29T13:04:16.208Z,3.77
2018-06-29T13:06:44.743Z,3.70
2018-06-29T13:09:13.372Z,4.10
2018-06-29T13:11:41.912Z,4.77
2018-06-29T13:14:10.536Z,5.13
2018-06-29T13:16:39.332Z,4.73
2018-06-29T13:19:07.926Z,5.03
2018-06-29T13:21:36.451Z,4.93
2018-06-29T13:24:05.281Z,4.47
2018-06-29T13:26:33.992Z,4.60
2018-06-29T13:29:02.720Z,4.73
2018-06-29T13:31:31.467Z,4.70
2018-06-29T13:34:00.174Z,4.10
2018-06-29T13:36:29.279Z,3.60
2018-06-29T13:38:58.017Z,3.67
2018-06-29T13:41:26.666Z,3.97
2018-06-29T13:43:55.360Z,3.90
2018-06-29T13:46:24.158Z,3.90
2018-06-29T13:48:53.500Z,4.10
2018-06-29T13:51:22.075Z,4.73
2018-06-29T13:53:50.836Z,4.60
2018-06-29T13:56:19.647Z,4.67
2018-06-29T13:58:48.220Z,4.60
2018-06-29T14:01:16.732Z,4.47
2018-06-29T14:03:45.855Z,4.40
2018-06-29T14:06:14.378Z,4.23
2018-06-29T14:08:43.199Z,3.80
2018-06-29T14:11:12.761Z,3.70
2018-06-29T14:13:41.434Z,3.23
2018-06-29T14:16:09.895Z,3.33
2018-06-29T14:18:38.539Z,3.10
2018-06-29T14:21:07.278Z,3.10
2018-06-29T14:23:36.117Z,2.70
2018-06-29T14:26:04.761Z,2.90
2018-06-29T14:28:33.508Z,2.98
2018-06-29T14:31:02.357Z,3.30
2018-06-29T14:33:31.024Z,2.90
2018-06-29T14:35:59.536Z,3.15
2018-06-29T14:38:28.452Z,3.30
2018-06-29T14:40:57.084Z,3.30
2018-06-29T14:43:25.811Z,3.53
2018-06-29T14:45:54.474Z,3.20
2018-06-29T14:48:24.847Z,3.37
2018-06-29T14:50:53.660Z,3.50
2018-06-29T14:53:22.392Z,3.30
2018-06-29T14:55:50.926Z,3.27
2018-06-29T14:58:19.664Z,3.20
2018-06-29T15:00:48.236Z,3.50
2018-06-29T15:03:16.840Z,2.90
2018-06-29T15:05:45.330Z,3.23
2018-06-29T15:08:13.939Z,3.30
2018-06-29T15:10:42.735Z,3.53
2018-06-29T15:13:11.240Z,3.07
2018-06-29T15:15:40.664Z,3.20
2018-06-29T15:18:09.371Z,2.83
2018-06-29T15:20:38.075Z,2.80
2018-06-29T15:23:06.605Z,3.13
2018-06-29T15:25:35.216Z,2.52
2018-06-29T15:28:03.911Z,2.47
2018-06-29T15:30:32.507Z,2.70
2018-06-29T15:33:01.239Z,2.80
2018-06-29T15:35:29.999Z,3.02
2018-06-29T15:37:58.686Z,2.93
2018-06-29T15:40:27.581Z,2.80
2018-06-29T15:42:56.190Z,2.90
2018-06-29T15:45:24.855Z,2.90
2018-06-29T15:47:53.556Z,3.20
2018-06-29T15:50:22.157Z,2.60
2018-06-29T15:52:50.807Z,3.30
2018-06-29T15:55:19.423Z,3.03
2018-06-29T15:57:48.804Z,3.23
2018-06-29T16:00:17.795Z,3.40
2018-06-29T16:02:46.388Z,3.37
2018-06-29T16:05:14.987Z,3.10
2018-06-29T16:07:43.608Z,2.70
2018-06-29T16:10:12.776Z,2.87
2018-06-29T16:12:42.028Z,2.75
2018-06-29T16:15:10.646Z,3.15
2018-06-29T16:17:39.453Z,3.00
2018-06-29T16:20:08.147Z,3.08
2018-06-29T16:22:36.883Z,3.08
2018-06-29T16:25:05.568Z,2.98
2018-06-29T16:27:34.324Z,3.17
2018-06-29T16:30:03.038Z,3.60
2018-06-29T16:32:31.586Z,2.92
2018-06-29T16:35:00.216Z,3.40
2018-06-29T16:37:29.254Z,3.00
2018-06-29T16:39:57.832Z,2.90
2018-06-29T16:42:26.899Z,3.55
2018-06-29T16:44:55.635Z,3.12
2018-06-29T16:47:24.438Z,3.37
2018-06-29T16:49:52.699Z,3.75
2018-06-29T16:52:21.671Z,3.62
2018-06-29T16:54:50.284Z,3.40
2018-06-29T16:57:19.116Z,3.60
2018-06-29T16:59:47.744Z,3.47
2018-06-29T17:02:16.325Z,3.30
2018-06-29T17:04:45.133Z,3.80
2018-06-29T17:07:13.793Z,3.97
2018-06-29T17:09:42.286Z,4.20
2018-06-29T17:12:10.922Z,4.40
2018-06-29T17:14:39.900Z,3.87
2018-06-29T17:17:08.588Z,4.33
2018-06-29T17:19:37.432Z,3.90
2018-06-29T17:22:06.523Z,3.23
2018-06-29T17:24:35.115Z,3.40
2018-06-29T17:27:03.983Z,3.43
2018-06-29T17:29:32.583Z,3.73
2018-06-29T17:32:01.208Z,3.37
2018-06-29T17:34:29.870Z,3.10
2018-06-29T17:36:59.292Z,3.33
2018-06-29T17:39:28.120Z,2.83
2018-06-29T17:41:57.120Z,3.30
2018-06-29T17:44:25.686Z,3.20
2018-06-29T17:46:55.081Z,3.17
2018-06-29T17:49:23.763Z,2.77
2018-06-29T17:51:52.376Z,3.33
2018-06-29T17:54:21.081Z,3.10
2018-06-29T17:56:49.754Z,3.50
2018-06-29T17:59:19.170Z,2.83
2018-06-29T18:01:47.759Z,2.77
2018-06-29T18:04:16.639Z,2.90
2018-06-29T18:06:45.355Z,3.10
2018-06-29T18:09:14.012Z,2.77
2018-06-29T18:11:42.772Z,3.17
2018-06-29T18:14:11.971Z,3.33
2018-06-29T18:16:40.639Z,3.53
2018-06-29T18:19:09.241Z,3.30
2018-06-29T18:21:37.905Z,3.77
2018-06-29T18:24:07.294Z,3.60
2018-06-29T18:26:36.699Z,3.77
2018-06-29T18:29:05.820Z,3.30
2018-06-29T18:31:34.040Z,3.50
2018-06-29T18:34:03.331Z,4.13
2018-06-29T18:36:32.680Z,4.40
2018-06-29T18:39:01.745Z,4.20
2018-06-29T18:41:30.283Z,3.83
2018-06-29T18:43:58.831Z,4.27
2018-06-29T18:46:27.348Z,4.50
2018-06-29T18:48:55.996Z,4.20
2018-06-29T18:51:24.809Z,4.60
2018-06-29T18:53:53.765Z,4.83
2018-06-29T18:56:22.506Z,4.43
2018-06-29T18:58:51.605Z,4.60
2018-06-29T19:01:20.510Z,4.87
2018-06-29T19:03:49.042Z,4.50
2018-06-29T19:06:17.450Z,4.53
2018-06-29T19:08:46.155Z,4.77
2018-06-29T19:11:15.052Z,4.50
2018-06-29T19:13:44.003Z,5.37
2018-06-29T19:16:12.238Z,4.80
2018-06-29T19:18:41.575Z,5.00
2018-06-29T19:21:10.269Z,5.00
2018-06-29T19:23:39.013Z,4.70
2018-06-29T19:26:07.769Z,4.77
2018-06-29T19:28:36.996Z,5.40
2018-06-29T19:31:06.800Z,5.10
2018-06-29T19:33:35.863Z,5.17
2018-06-29T19:36:04.665Z,5.60
2018-06-29T19:38:33.496Z,5.60
2018-06-29T19:41:02.140Z,5.07
2018-06-29T19:43:30.754Z,5.03
2018-06-29T19:45:59.389Z,5.40
2018-06-29T19:48:27.897Z,5.40
2018-06-29T19:50:56.436Z,5.60
2018-06-29T19:53:25.131Z,5.23
2018-06-29T19:55:53.786Z,5.60
2018-06-29T19:58:22.656Z,4.90
2018-06-29T20:00:51.450Z,5.57
2018-06-29T20:03:20.273Z,6.00
2018-06-29T20:05:48.927Z,5.63
2018-06-29T20:08:17.607Z,6.43
2018-06-29T20:10:46.259Z,6.00
2018-06-29T20:13:14.972Z,6.03
2018-06-29T20:15:43.781Z,5.83
2018-06-29T20:18:12.376Z,6.37
2018-06-29T20:20:41.476Z,6.77
2018-06-29T20:23:10.127Z,5.80
2018-06-29T20:25:38.775Z,6.20
2018-06-29T20:28:07.526Z,6.60
2018-06-29T20:30:36.232Z,6.43
2018-06-29T20:33:05.064Z,6.10
2018-06-29T20:35:33.731Z,6.60
2018-06-29T20:38:02.507Z,6.60
2018-06-29T20:40:31.047Z,6.47
2018-06-29T20:42:59.888Z,7.37
2018-06-29T20:45:28.693Z,6.73
2018-06-29T20:47:57.471Z,6.70
2018-06-29T20:50:25.827Z,6.30
2018-06-29T20:52:54.432Z,7.10
2018-06-29T20:55:23.300Z,6.63
2018-06-29T20:57:52.221Z,6.80
2018-06-29T21:00:20.787Z,6.87
2018-06-29T21:02:49.442Z,7.37
2018-06-29T21:05:18.025Z,6.97
2018-06-29T21:07:46.910Z,7.37
2018-06-29T21:10:15.935Z,7.07
2018-06-29T21:12:44.655Z,6.90
2018-06-29T21:15:14.608Z,7.20
2018-06-29T21:17:43.518Z,7.37
2018-06-29T21:20:12.360Z,7.30
2018-06-29T21:22:41.768Z,7.30
2018-06-29T21:25:10.401Z,6.70
2018-06-29T21:27:39.193Z,6.60
2018-06-29T21:30:08.471Z,7.30
2018-06-29T21:32:37.113Z,7.03
2018-06-29T21:35:06.360Z,7.43
2018-06-29T21:37:34.896Z,6.90
2018-06-29T21:40:04.598Z,7.17
2018-06-29T21:42:33.180Z,6.97
2018-06-29T21:45:02.012Z,7.23
2018-06-29T21:47:31.296Z,7.17
2018-06-29T21:50:00.364Z,7.67
2018-06-29T21:52:29.194Z,7.60
2018-06-29T21:54:57.753Z,7.73
2018-06-29T21:57:27.019Z,7.10
2018-06-29T21:59:55.696Z,7.40
2018-06-29T22:02:24.397Z,7.27
2018-06-29T22:04:52.971Z,7.30
2018-06-29T22:07:21.783Z,7.97
2018-06-29T22:09:50.483Z,7.63
2018-06-29T22:12:19.147Z,8.07
2018-06-29T22:14:47.922Z,8.07
2018-06-29T22:17:16.447Z,8.37
2018-06-29T22:19:45.103Z,7.37
2018-06-29T22:22:13.796Z,7.43
2018-06-29T22:24:42.354Z,7.73
2018-06-29T22:27:11.076Z,8.83
2018-06-29T22:29:39.653Z,7.40
2018-06-29T22:32:08.503Z,7.80
2018-06-29T22:34:37.155Z,7.70
2018-06-29T22:37:05.769Z,8.87
2018-06-29T22:39:34.299Z,8.37
2018-06-29T22:42:02.872Z,7.97
2018-06-29T22:44:31.558Z,8.60
2018-06-29T22:47:00.141Z,8.03
2018-06-29T22:49:28.637Z,8.13
2018-06-29T22:51:57.496Z,8.10
2018-06-29T22:54:26.220Z,8.07
2018-06-29T22:56:54.953Z,8.83
2018-06-29T22:59:23.571Z,8.60
2018-06-29T23:01:52.024Z,8.90
2018-06-29T23:04:20.644Z,8.90
2018-06-29T23:06:49.271Z,7.83
2018-06-29T23:09:17.990Z,7.77
2018-06-29T23:11:47.229Z,8.47
2018-06-29T23:14:15.920Z,8.60
2018-06-29T23:16:44.429Z,8.93
2018-06-29T23:19:12.903Z,8.77
2018-06-29T23:21:41.391Z,8.30
2018-06-29T23:24:09.905Z,9.27
2018-06-29T23:26:38.525Z,8.90
2018-06-29T23:29:07.932Z,8.53
2018-06-29T23:31:36.511Z,9.47
2018-06-29T23:34:05.236Z,8.50
2018-06-29T23:36:33.850Z,9.27
2018-06-29T23:39:03.112Z,9.40
2018-06-29T23:41:31.703Z,9.50
2018-06-29T23:44:00.420Z,9.53
2018-06-29T23:46:29.329Z,9.93
2018-06-29T23:48:57.942Z,8.93
2018-06-29T23:51:26.426Z,9.27
2018-06-29T23:53:55.043Z,9.23
2018-06-29T23:56:24.105Z,10.20
2018-06-29T23:58:52.694Z,9.33
